Aegean Orion — SVA2487 — position and weather

sailwx.info

Track history (hours):
 
Tides and Currents Weather Stations Pressure Air Temp Water Temp Dewpoint Dewpoint Depression Visibility Wind Speed Wind Dir Waves Ship Positions

Aegean Orion

Last reported at 2016-Aug-30 04:33 UTC. Time now 2016-Aug-30 04:57 UTC.
Position N 37°57' E 023°34'.

; draft 2.4 m.

Type: Ship. MMSI: 239550200.

Date/timePositionNaut miles runAvg speedWind from/ knotsBaromVisibWave heightAir tempDewpointWater temp
2016-Aug-30 04:33N 37°57' E 023°34'0 0.0
2016-Aug-30 03:33N 37°57' E 023°34'0 0.0
2016-Aug-30 02:33N 37°57' E 023°34'0 0.0
2016-Aug-30 01:33N 37°57' E 023°34'0 0.0
2016-Aug-30 00:33N 37°57' E 023°34'0 0.0
2016-Aug-29 23:33N 37°57' E 023°34'0 0.0
2016-Aug-29 22:33N 37°57' E 023°34'0 0.0
2016-Aug-29 21:33N 37°57' E 023°34'0 0.0
2016-Aug-29 20:34N 37°57' E 023°34'0 0.0
2016-Aug-29 19:33N 37°57' E 023°34'3 3.3
2016-Aug-29 18:33N 37°57' E 023°38'0 0.1
2016-Aug-29 17:33N 37°57' E 023°38'3 2.8
2016-Aug-29 16:34N 37°57' E 023°35'0 0.4
2016-Aug-29 15:33N 37°57' E 023°34'0 0.0
2016-Aug-29 14:33N 37°57' E 023°34'3 3.2
2016-Aug-29 13:33N 37°57' E 023°38'0 0.0
2016-Aug-29 12:33N 37°57' E 023°38'2 1.8
2016-Aug-29 11:33N 37°57' E 023°36'4 4.5
2016-Aug-29 10:33N 38°00' E 023°33'2 2.1
2016-Aug-29 09:33N 38°02' E 023°32'1 0.0
2016-Aug-27 20:33N 38°02' E 023°31'0 0.0
2016-Aug-27 19:33N 38°02' E 023°31'0 0.0
2016-Aug-27 18:33N 38°02' E 023°31'0 0.0
2016-Aug-27 17:33N 38°02' E 023°31'0 0.0
2016-Aug-27 16:33N 38°02' E 023°31'2 2.0
2016-Aug-27 15:34N 38°01' E 023°32'6 6.2
2016-Aug-27 14:33N 37°57' E 023°38'0 0.4
2016-Aug-27 13:33N 37°57' E 023°38'1 1.3
2016-Aug-27 12:34N 37°56' E 023°37'2 1.6
2016-Aug-27 11:33N 37°57' E 023°35'1 0.6
2016-Aug-27 10:34N 37°57' E 023°35'0 0.0
2016-Aug-27 09:33N 37°57' E 023°34'0 0.0
2016-Aug-27 08:33N 37°57' E 023°35'0 0.0
2016-Aug-27 07:33N 37°57' E 023°35'0 0.0
2016-Aug-27 06:33N 37°57' E 023°35'0 0.0
2016-Aug-27 04:33N 37°57' E 023°35'0 0.0
2016-Aug-27 03:34N 37°57' E 023°35'0 0.0
2016-Aug-27 02:33N 37°57' E 023°35'0 0.0
2016-Aug-27 01:34N 37°57' E 023°35'0 0.0
2016-Aug-27 00:34N 37°57' E 023°35'0 0.0
2016-Aug-26 23:34N 37°57' E 023°35'0 0.0
2016-Aug-26 22:33N 37°57' E 023°35'0 0.0
2016-Aug-26 21:33N 37°57' E 023°35'0 0.0
2016-Aug-26 20:33N 37°57' E 023°35'1 1.0
2016-Aug-26 19:34N 37°57' E 023°36'2 2.3
2016-Aug-26 18:33N 37°57' E 023°38'1 0.7
2016-Aug-26 17:33N 37°56' E 023°38'3 2.7
2016-Aug-26 16:33N 37°57' E 023°35'6 5.6
2016-Aug-26 15:34N 38°02' E 023°32'0 0.0
2016-Aug-26 08:33N 38°02' E 023°32'3 2.7
2016-Aug-26 07:34N 38°02' E 023°35'0 0.0
2016-Aug-26 06:33N 38°02' E 023°35'0 0.1
2016-Aug-26 04:33N 38°02' E 023°35'3 0.2
2016-Aug-25 15:34N 38°02' E 023°32'7 7.0
2016-Aug-25 14:34N 37°56' E 023°37'1 1.1
2016-Aug-25 13:34N 37°57' E 023°38'0 0.0
2016-Aug-25 12:33N 37°57' E 023°38'2 1.7
2016-Aug-25 11:34N 37°57' E 023°36'2 2.0
2016-Aug-25 10:33N 37°57' E 023°34'0 0.0
2016-Aug-25 09:33N 37°57' E 023°34'0 0.0
2016-Aug-25 08:33N 37°57' E 023°34'0 0.0
2016-Aug-25 07:33N 37°57' E 023°34'0 0.0
2016-Aug-25 06:34N 37°57' E 023°34'0 0.0
2016-Aug-25 04:33N 37°57' E 023°34'0 0.0
2016-Aug-25 03:34N 37°57' E 023°34'0 0.0
2016-Aug-25 02:34N 37°57' E 023°34'0 0.0
2016-Aug-25 01:34N 37°57' E 023°34'0 0.0
2016-Aug-25 00:33N 37°57' E 023°34'0 0.0
2016-Aug-24 23:34N 37°57' E 023°34'4 3.6
2016-Aug-24 22:34N 37°57' E 023°38'0 0.0
2016-Aug-24 21:34N 37°57' E 023°38'1 0.7
2016-Aug-24 20:33N 37°56' E 023°38'3 3.0
2016-Aug-24 19:33N 37°57' E 023°34'0 0.0
2016-Aug-24 18:34N 37°57' E 023°34'0 0.0
2016-Aug-24 17:33N 37°57' E 023°34'5 4.9
2016-Aug-24 16:34N 38°02' E 023°32'0 0.0
2016-Aug-23 20:33N 38°02' E 023°32'1 0.8
2016-Aug-23 19:33N 38°02' E 023°31'0 0.0
2016-Aug-23 18:33N 38°02' E 023°31'0 0.0
2016-Aug-23 17:33N 38°02' E 023°31'0 0.0
2016-Aug-23 16:33N 38°02' E 023°31'1 0.5
2016-Aug-23 15:33N 38°02' E 023°31'7 6.6
2016-Aug-23 14:33N 37°57' E 023°36'2 1.8
2016-Aug-23 13:33N 37°57' E 023°38'0 0.0
2016-Aug-23 12:34N 37°57' E 023°38'2 1.7
2016-Aug-23 11:33N 37°57' E 023°36'2 1.6
2016-Aug-23 10:33N 37°57' E 023°34'0 0.0
2016-Aug-23 09:33N 37°57' E 023°34'0 0.0
2016-Aug-23 08:33N 37°57' E 023°35'2 2.0
2016-Aug-23 07:34N 37°57' E 023°37'2 2.0
2016-Aug-23 06:33N 37°57' E 023°35'0 0.0
2016-Aug-23 05:33N 37°57' E 023°35'0 0.0
2016-Aug-23 04:33N 37°57' E 023°35'0 0.0
2016-Aug-23 03:33N 37°57' E 023°35'0 0.0
2016-Aug-23 02:33N 37°57' E 023°35'0 0.0
2016-Aug-23 01:33N 37°57' E 023°35'0 0.0
2016-Aug-23 00:33N 37°57' E 023°35'0 0.0
2016-Aug-22 23:33N 37°57' E 023°35'0 0.0
2016-Aug-22 22:33N 37°57' E 023°35'0 0.0
2016-Aug-22 21:34N 37°57' E 023°35'0 0.0
2016-Aug-22 20:33N 37°57' E 023°35'2 2.5
2016-Aug-22 19:34N 37°56' E 023°37'1 1.0
2016-Aug-22 18:33N 37°57' E 023°38'0 0.0
2016-Aug-22 17:33N 37°57' E 023°38'4 3.7
2016-Aug-22 16:33N 37°57' E 023°34'5 5.3
2016-Aug-22 15:33N 38°02' E 023°32'0 0.0
2016-Aug-22 14:33N 38°02' E 023°32'0 0.0
2016-Aug-22 13:34N 38°02' E 023°32'0 0.0
2016-Aug-22 12:33N 38°02' E 023°32'0 0.0
2016-Aug-22 11:33N 38°02' E 023°32'0 0.0
2016-Aug-22 10:33N 38°02' E 023°32'0 0.0
2016-Aug-22 09:33N 38°02' E 023°32'1 1.0
2016-Aug-22 08:33N 38°02' E 023°31'0 0.1
2016-Aug-22 07:33N 38°02' E 023°31'0 0.0
2016-Aug-22 06:33N 38°02' E 023°31'0 0.0
2016-Aug-22 05:33N 38°02' E 023°31'0 0.0
2016-Aug-22 04:33N 38°02' E 023°31'3 3.5
2016-Aug-22 03:33N 37°59' E 023°33'2 2.3
2016-Aug-22 02:33N 37°57' E 023°35'0 0.0
2016-Aug-22 01:33N 37°57' E 023°35'0 0.0
2016-Aug-22 00:34N 37°57' E 023°35'0 0.0
2016-Aug-21 23:34N 37°57' E 023°35'3 3.1
2016-Aug-21 22:33N 37°57' E 023°38'0 0.0
2016-Aug-21 21:33N 37°57' E 023°38'0 0.3
2016-Aug-21 20:33N 37°57' E 023°38'3 3.0
2016-Aug-21 19:34N 37°57' E 023°35'0 0.0
2016-Aug-21 18:33N 37°57' E 023°35'0 0.0
2016-Aug-21 17:33N 37°57' E 023°35'0 0.0
2016-Aug-21 16:33N 37°57' E 023°35'0 0.0
2016-Aug-21 15:34N 37°57' E 023°35'0 0.0
2016-Aug-21 14:33N 37°57' E 023°35'3 3.2
2016-Aug-21 13:33N 37°57' E 023°38'0 0.0
2016-Aug-21 12:33N 37°57' E 023°38'2 1.6
2016-Aug-21 11:33N 37°56' E 023°37'5 5.3
2016-Aug-21 10:33N 38°01' E 023°32'2 0.1
2016-Aug-20 20:14N 38°02' E 023°31'1 0.9
2016-Aug-20 19:33N 38°02' E 023°31'0 0.0
2016-Aug-20 18:33N 38°02' E 023°31'0 0.0
2016-Aug-20 17:34N 38°02' E 023°31'0 0.5
2016-Aug-20 16:34N 38°02' E 023°31'0 0.0
2016-Aug-20 15:33N 38°02' E 023°31'3 3.0
2016-Aug-20 14:33N 37°59' E 023°33'5 4.5
2016-Aug-20 13:34N 37°56' E 023°37'0 0.1
2016-Aug-20 12:33N 37°56' E 023°37'5 5.0
2016-Aug-20 11:33N 37°60' E 023°33'  
Track history (hours):
 
Tides and Currents Weather Stations Pressure Air Temp Water Temp Dewpoint Dewpoint Depression Visibility Wind Speed Wind Dir Waves Ship Positions

Aegean Orion

Last reported at 2016-Aug-30 04:33 UTC. Time now 2016-Aug-30 04:57 UTC.
Position N 37°57' E 023°34'.

; draft 2.4 m.

Type: Ship. MMSI: 239550200.

Date/timePositionNaut miles runAvg speedWind from/ knotsBaromVisibWave heightAir tempDewpointWater temp
2016-Aug-30 04:33N 37°57' E 023°34'0 0.0
2016-Aug-30 03:33N 37°57' E 023°34'0 0.0
2016-Aug-30 02:33N 37°57' E 023°34'0 0.0
2016-Aug-30 01:33N 37°57' E 023°34'0 0.0
2016-Aug-30 00:33N 37°57' E 023°34'0 0.0
2016-Aug-29 23:33N 37°57' E 023°34'0 0.0
2016-Aug-29 22:33N 37°57' E 023°34'0 0.0
2016-Aug-29 21:33N 37°57' E 023°34'0 0.0
2016-Aug-29 20:34N 37°57' E 023°34'0 0.0
2016-Aug-29 19:33N 37°57' E 023°34'3 3.3
2016-Aug-29 18:33N 37°57' E 023°38'0 0.1
2016-Aug-29 17:33N 37°57' E 023°38'3 2.8
2016-Aug-29 16:34N 37°57' E 023°35'0 0.4
2016-Aug-29 15:33N 37°57' E 023°34'0 0.0
2016-Aug-29 14:33N 37°57' E 023°34'3 3.2
2016-Aug-29 13:33N 37°57' E 023°38'0 0.0
2016-Aug-29 12:33N 37°57' E 023°38'2 1.8
2016-Aug-29 11:33N 37°57' E 023°36'4 4.5
2016-Aug-29 10:33N 38°00' E 023°33'2 2.1
2016-Aug-29 09:33N 38°02' E 023°32'1 0.0
2016-Aug-27 20:33N 38°02' E 023°31'0 0.0
2016-Aug-27 19:33N 38°02' E 023°31'0 0.0
2016-Aug-27 18:33N 38°02' E 023°31'0 0.0
2016-Aug-27 17:33N 38°02' E 023°31'0 0.0
2016-Aug-27 16:33N 38°02' E 023°31'2 2.0
2016-Aug-27 15:34N 38°01' E 023°32'6 6.2
2016-Aug-27 14:33N 37°57' E 023°38'0 0.4
2016-Aug-27 13:33N 37°57' E 023°38'1 1.3
2016-Aug-27 12:34N 37°56' E 023°37'2 1.6
2016-Aug-27 11:33N 37°57' E 023°35'1 0.6
2016-Aug-27 10:34N 37°57' E 023°35'0 0.0
2016-Aug-27 09:33N 37°57' E 023°34'0 0.0
2016-Aug-27 08:33N 37°57' E 023°35'0 0.0
2016-Aug-27 07:33N 37°57' E 023°35'0 0.0
2016-Aug-27 06:33N 37°57' E 023°35'0 0.0
2016-Aug-27 04:33N 37°57' E 023°35'0 0.0
2016-Aug-27 03:34N 37°57' E 023°35'0 0.0
2016-Aug-27 02:33N 37°57' E 023°35'0 0.0
2016-Aug-27 01:34N 37°57' E 023°35'0 0.0
2016-Aug-27 00:34N 37°57' E 023°35'0 0.0
2016-Aug-26 23:34N 37°57' E 023°35'0 0.0
2016-Aug-26 22:33N 37°57' E 023°35'0 0.0
2016-Aug-26 21:33N 37°57' E 023°35'0 0.0
2016-Aug-26 20:33N 37°57' E 023°35'1 1.0
2016-Aug-26 19:34N 37°57' E 023°36'2 2.3
2016-Aug-26 18:33N 37°57' E 023°38'1 0.7
2016-Aug-26 17:33N 37°56' E 023°38'3 2.7
2016-Aug-26 16:33N 37°57' E 023°35'6 5.6
2016-Aug-26 15:34N 38°02' E 023°32'0 0.0
2016-Aug-26 08:33N 38°02' E 023°32'3 2.7
2016-Aug-26 07:34N 38°02' E 023°35'0 0.0
2016-Aug-26 06:33N 38°02' E 023°35'0 0.1
2016-Aug-26 04:33N 38°02' E 023°35'3 0.2
2016-Aug-25 15:34N 38°02' E 023°32'7 7.0
2016-Aug-25 14:34N 37°56' E 023°37'1 1.1
2016-Aug-25 13:34N 37°57' E 023°38'0 0.0
2016-Aug-25 12:33N 37°57' E 023°38'2 1.7
2016-Aug-25 11:34N 37°57' E 023°36'2 2.0
2016-Aug-25 10:33N 37°57' E 023°34'0 0.0
2016-Aug-25 09:33N 37°57' E 023°34'0 0.0
2016-Aug-25 08:33N 37°57' E 023°34'0 0.0
2016-Aug-25 07:33N 37°57' E 023°34'0 0.0
2016-Aug-25 06:34N 37°57' E 023°34'0 0.0
2016-Aug-25 04:33N 37°57' E 023°34'0 0.0
2016-Aug-25 03:34N 37°57' E 023°34'0 0.0
2016-Aug-25 02:34N 37°57' E 023°34'0 0.0
2016-Aug-25 01:34N 37°57' E 023°34'0 0.0
2016-Aug-25 00:33N 37°57' E 023°34'0 0.0
2016-Aug-24 23:34N 37°57' E 023°34'4 3.6
2016-Aug-24 22:34N 37°57' E 023°38'0 0.0
2016-Aug-24 21:34N 37°57' E 023°38'1 0.7
2016-Aug-24 20:33N 37°56' E 023°38'3 3.0
2016-Aug-24 19:33N 37°57' E 023°34'0 0.0
2016-Aug-24 18:34N 37°57' E 023°34'0 0.0
2016-Aug-24 17:33N 37°57' E 023°34'5 4.9
2016-Aug-24 16:34N 38°02' E 023°32'0 0.0
2016-Aug-23 20:33N 38°02' E 023°32'1 0.8
2016-Aug-23 19:33N 38°02' E 023°31'0 0.0
2016-Aug-23 18:33N 38°02' E 023°31'0 0.0
2016-Aug-23 17:33N 38°02' E 023°31'0 0.0
2016-Aug-23 16:33N 38°02' E 023°31'1 0.5
2016-Aug-23 15:33N 38°02' E 023°31'7 6.6
2016-Aug-23 14:33N 37°57' E 023°36'2 1.8
2016-Aug-23 13:33N 37°57' E 023°38'0 0.0
2016-Aug-23 12:34N 37°57' E 023°38'2 1.7
2016-Aug-23 11:33N 37°57' E 023°36'2 1.6
2016-Aug-23 10:33N 37°57' E 023°34'0 0.0
2016-Aug-23 09:33N 37°57' E 023°34'0 0.0
2016-Aug-23 08:33N 37°57' E 023°35'2 2.0
2016-Aug-23 07:34N 37°57' E 023°37'2 2.0
2016-Aug-23 06:33N 37°57' E 023°35'0 0.0
2016-Aug-23 05:33N 37°57' E 023°35'0 0.0
2016-Aug-23 04:33N 37°57' E 023°35'0 0.0
2016-Aug-23 03:33N 37°57' E 023°35'0 0.0
2016-Aug-23 02:33N 37°57' E 023°35'0 0.0
2016-Aug-23 01:33N 37°57' E 023°35'0 0.0
2016-Aug-23 00:33N 37°57' E 023°35'0 0.0
2016-Aug-22 23:33N 37°57' E 023°35'0 0.0
2016-Aug-22 22:33N 37°57' E 023°35'0 0.0
2016-Aug-22 21:34N 37°57' E 023°35'0 0.0
2016-Aug-22 20:33N 37°57' E 023°35'2 2.5
2016-Aug-22 19:34N 37°56' E 023°37'1 1.0
2016-Aug-22 18:33N 37°57' E 023°38'0 0.0
2016-Aug-22 17:33N 37°57' E 023°38'4 3.7
2016-Aug-22 16:33N 37°57' E 023°34'5 5.3
2016-Aug-22 15:33N 38°02' E 023°32'0 0.0
2016-Aug-22 14:33N 38°02' E 023°32'0 0.0
2016-Aug-22 13:34N 38°02' E 023°32'0 0.0
2016-Aug-22 12:33N 38°02' E 023°32'0 0.0
2016-Aug-22 11:33N 38°02' E 023°32'0 0.0
2016-Aug-22 10:33N 38°02' E 023°32'0 0.0
2016-Aug-22 09:33N 38°02' E 023°32'1 1.0
2016-Aug-22 08:33N 38°02' E 023°31'0 0.1
2016-Aug-22 07:33N 38°02' E 023°31'0 0.0
2016-Aug-22 06:33N 38°02' E 023°31'0 0.0
2016-Aug-22 05:33N 38°02' E 023°31'0 0.0
2016-Aug-22 04:33N 38°02' E 023°31'3 3.5
2016-Aug-22 03:33N 37°59' E 023°33'2 2.3
2016-Aug-22 02:33N 37°57' E 023°35'0 0.0
2016-Aug-22 01:33N 37°57' E 023°35'0 0.0
2016-Aug-22 00:34N 37°57' E 023°35'0 0.0
2016-Aug-21 23:34N 37°57' E 023°35'3 3.1
2016-Aug-21 22:33N 37°57' E 023°38'0 0.0
2016-Aug-21 21:33N 37°57' E 023°38'0 0.3
2016-Aug-21 20:33N 37°57' E 023°38'3 3.0
2016-Aug-21 19:34N 37°57' E 023°35'0 0.0
2016-Aug-21 18:33N 37°57' E 023°35'0 0.0
2016-Aug-21 17:33N 37°57' E 023°35'0 0.0
2016-Aug-21 16:33N 37°57' E 023°35'0 0.0
2016-Aug-21 15:34N 37°57' E 023°35'0 0.0
2016-Aug-21 14:33N 37°57' E 023°35'3 3.2
2016-Aug-21 13:33N 37°57' E 023°38'0 0.0
2016-Aug-21 12:33N 37°57' E 023°38'2 1.6
2016-Aug-21 11:33N 37°56' E 023°37'5 5.3
2016-Aug-21 10:33N 38°01' E 023°32'2 0.1
2016-Aug-20 20:14N 38°02' E 023°31'1 0.9
2016-Aug-20 19:33N 38°02' E 023°31'0 0.0
2016-Aug-20 18:33N 38°02' E 023°31'0 0.0
2016-Aug-20 17:34N 38°02' E 023°31'0 0.5
2016-Aug-20 16:34N 38°02' E 023°31'0 0.0
2016-Aug-20 15:33N 38°02' E 023°31'3 3.0
2016-Aug-20 14:33N 37°59' E 023°33'5 4.5
2016-Aug-20 13:34N 37°56' E 023°37'0 0.1
2016-Aug-20 12:33N 37°56' E 023°37'5 5.0
2016-Aug-20 11:33N 37°60' E 023°33'  

Dump ship's entire track history